Budapest Bridge — VRIZ5 — position and weather

sailwx.info

Track history (hours):
 
Tides and Currents Weather Stations Pressure Air Temp Water Temp Dewpoint Dewpoint Depression Visibility Wind Speed Wind Dir Waves Ship Positions

Budapest Bridge

Last reported at 2014-Sep-17 01:33 UTC. Time now 2014-Sep-18 19:51 UTC.
Position N 29°36' E 122°30'.

Length 268 m; draft 10.8 m.

Type: Cargo ship. MMSI: 477434200.

Date/timePositionNaut miles runAvg speedWind from/ knotsBaromVisibWave heightAir tempDewpointWater temp
2014-Sep-17 01:33N 29°36' E 122°30'1515.4
2014-Sep-17 00:33N 29°46' E 122°17'1313.1
2014-Sep-16 23:33N 29°55' E 122°06'1212.0
2014-Sep-16 22:33N 29°56' E 121°52'0 0.1
2014-Sep-16 20:32N 29°56' E 121°52'0 0.0
2014-Sep-16 17:14N 29°56' E 121°52'0 0.0
2014-Sep-16 14:08N 29°56' E 121°52'0 0.0
2014-Sep-16 13:20N 29°56' E 121°52'0 0.1
2014-Sep-16 11:33N 29°56' E 121°52'6 6.0
2014-Sep-16 10:33N 29°58' E 121°59'1312.9
2014-Sep-16 09:33N 29°52' E 122°12'9 9.4
2014-Sep-16 08:33N 29°45' E 122°20'8 8.5
2014-Sep-16 07:33N 29°44' E 122°29'0 0.1
2014-Sep-16 05:12N 29°44' E 122°29'0 0.0
2014-Sep-16 04:12N 29°44' E 122°29'0 0.1
2014-Sep-16 03:30N 29°44' E 122°29'0 0.1
2014-Sep-16 02:24N 29°44' E 122°29'0 0.0
2014-Sep-15 23:30N 29°44' E 122°29'0 0.1
2014-Sep-15 22:18N 29°44' E 122°29'0 0.1
2014-Sep-15 21:30N 29°44' E 122°29'0 0.0
2014-Sep-15 16:25N 29°44' E 122°29'3 3.9
2014-Sep-15 15:33N 29°41' E 122°30'4 3.9
2014-Sep-15 14:33N 29°40' E 122°34'8 7.9
2014-Sep-15 13:33N 29°42' E 122°43'1313.1
2014-Sep-15 12:33N 29°51' E 122°54'2710.9
2014-Sep-15 10:04N 30°18' E 122°58'911.8
2014-Sep-15 09:21N 30°23' E 122°51'1011.6
2014-Sep-15 08:30N 30°29' E 122°42'1111.6
2014-Sep-15 07:33N 30°32' E 122°30'1010.2
2014-Sep-15 06:33N 30°33' E 122°18'12 0.7
2014-Sep-14 13:28N 30°36' E 122°05'9 9.3
2014-Sep-14 12:32N 30°34' E 122°15'9 8.9
2014-Sep-14 11:33N 30°32' E 122°25'7 7.2
2014-Sep-14 10:33N 30°31' E 122°33'1111.2
2014-Sep-14 09:34N 30°27' E 122°45'1312.8
2014-Sep-14 08:33N 30°20' E 122°57'1914.4
2014-Sep-14 07:13N 30°05' E 123°11'24420.0
2014-Sep-13 19:00N 26°24' E 121°12'10321.9 160 / 201006.0 5.4 1.528.025.233.0
2014-Sep-13 14:16N 25°03' E 120°01'2024.8
2014-Sep-13 13:28N 24°51' E 119°43'2325.2
2014-Sep-13 12:33N 24°38' E 119°22'2424.2
2014-Sep-13 11:33N 24°22' E 119°02'2423.9
2014-Sep-13 10:33N 24°09' E 118°40'2322.6
2014-Sep-13 09:33N 23°54' E 118°21'2222.4
2014-Sep-13 08:33N 23°42' E 118°01'2322.5
2014-Sep-13 07:32N 23°25' E 117°43'19518.7
2014-Sep-12 21:05N 22°07' E 114°29'24 9.6
2014-Sep-12 18:33N 22°18' E 114°06'2 0.2
2014-Sep-12 04:17N 22°20' E 114°07'4 4.6
2014-Sep-12 03:26N 22°16' E 114°07'8 9.2
2014-Sep-12 02:33N 22°10' E 114°12'53520.2
2014-Sep-11 00:00N 13°30' E 112°00'45719.1 250 / 141007.010.8 25.233.0
2014-Sep-10 00:00N 06°42' E 108°30'41718.3 230 / 18 10.8 1.029.024.833.0
2014-Sep-09 01:12N 01°16' E 104°10'1015.8
2014-Sep-09 00:34N 01°14' E 103°60'1111.5
2014-Sep-08 23:33N 01°13' E 103°48'5 4.7
2014-Sep-08 22:32N 01°17' E 103°46'0 0.0
2014-Sep-08 21:32N 01°17' E 103°46'0 0.0
2014-Sep-08 20:32N 01°17' E 103°46'0 0.1
2014-Sep-08 19:32N 01°17' E 103°46'0 0.1
2014-Sep-08 18:29N 01°17' E 103°46'0 0.0
2014-Sep-08 17:20N 01°17' E 103°46'0 0.0
2014-Sep-08 16:14N 01°17' E 103°46'0 0.0
2014-Sep-08 11:23N 01°17' E 103°46'0 0.0
2014-Sep-08 10:20N 01°17' E 103°46'0 0.0
2014-Sep-08 08:23N 01°17' E 103°46'0 0.0
2014-Sep-08 07:32N 01°17' E 103°46'0 0.0
2014-Sep-08 06:32N 01°17' E 103°46'0 0.0
2014-Sep-08 05:32N 01°17' E 103°46'0 0.0
2014-Sep-08 04:32N 01°17' E 103°46'0 0.0
2014-Sep-08 03:32N 01°17' E 103°46'0 0.0
2014-Sep-08 02:20N 01°17' E 103°46'0 0.0
2014-Sep-08 01:26N 01°17' E 103°46'0 0.0
2014-Sep-08 00:32N 01°17' E 103°46'0 0.0
2014-Sep-07 23:32N 01°17' E 103°46'0 0.0
2014-Sep-07 22:26N 01°17' E 103°46'0 0.0
2014-Sep-07 21:23N 01°17' E 103°46'0 0.0
2014-Sep-07 20:26N 01°17' E 103°46'0 0.0
2014-Sep-07 19:33N 01°17' E 103°46'1 0.5
2014-Sep-07 18:33N 01°17' E 103°46'3 3.0
2014-Sep-07 17:33N 01°14' E 103°47'7 6.0
2014-Sep-07 16:27N 01°15' E 103°54'0 0.0
2014-Sep-07 15:30N 01°15' E 103°54'0 0.2
2014-Sep-07 14:33N 01°14' E 103°53'0 0.0
2014-Sep-07 13:33N 01°14' E 103°53'0 0.0
2014-Sep-07 12:33N 01°14' E 103°53'0 0.0
2014-Sep-07 11:30N 01°14' E 103°53'0 0.0
2014-Sep-07 10:27N 01°14' E 103°53'0 0.1
2014-Sep-07 09:33N 01°14' E 103°53'0 0.1
2014-Sep-07 08:33N 01°14' E 103°53'0 0.1
2014-Sep-07 07:33N 01°15' E 103°53'0 0.1
2014-Sep-07 06:33N 01°14' E 103°53'0 0.0
2014-Sep-07 05:33N 01°14' E 103°53'0 0.0
2014-Sep-07 04:33N 01°14' E 103°53'0 0.1
2014-Sep-07 03:33N 01°15' E 103°53'0 0.1
2014-Sep-07 02:33N 01°15' E 103°53'  
Track history (hours):
 
Tides and Currents Weather Stations Pressure Air Temp Water Temp Dewpoint Dewpoint Depression Visibility Wind Speed Wind Dir Waves Ship Positions

Budapest Bridge

Last reported at 2014-Sep-17 01:33 UTC. Time now 2014-Sep-18 19:51 UTC.
Position N 29°36' E 122°30'.

Length 268 m; draft 10.8 m.

Type: Cargo ship. MMSI: 477434200.

Date/timePositionNaut miles runAvg speedWind from/ knotsBaromVisibWave heightAir tempDewpointWater temp
2014-Sep-17 01:33N 29°36' E 122°30'1515.4
2014-Sep-17 00:33N 29°46' E 122°17'1313.1
2014-Sep-16 23:33N 29°55' E 122°06'1212.0
2014-Sep-16 22:33N 29°56' E 121°52'0 0.1
2014-Sep-16 20:32N 29°56' E 121°52'0 0.0
2014-Sep-16 17:14N 29°56' E 121°52'0 0.0
2014-Sep-16 14:08N 29°56' E 121°52'0 0.0
2014-Sep-16 13:20N 29°56' E 121°52'0 0.1
2014-Sep-16 11:33N 29°56' E 121°52'6 6.0
2014-Sep-16 10:33N 29°58' E 121°59'1312.9
2014-Sep-16 09:33N 29°52' E 122°12'9 9.4
2014-Sep-16 08:33N 29°45' E 122°20'8 8.5
2014-Sep-16 07:33N 29°44' E 122°29'0 0.1
2014-Sep-16 05:12N 29°44' E 122°29'0 0.0
2014-Sep-16 04:12N 29°44' E 122°29'0 0.1
2014-Sep-16 03:30N 29°44' E 122°29'0 0.1
2014-Sep-16 02:24N 29°44' E 122°29'0 0.0
2014-Sep-15 23:30N 29°44' E 122°29'0 0.1
2014-Sep-15 22:18N 29°44' E 122°29'0 0.1
2014-Sep-15 21:30N 29°44' E 122°29'0 0.0
2014-Sep-15 16:25N 29°44' E 122°29'3 3.9
2014-Sep-15 15:33N 29°41' E 122°30'4 3.9
2014-Sep-15 14:33N 29°40' E 122°34'8 7.9
2014-Sep-15 13:33N 29°42' E 122°43'1313.1
2014-Sep-15 12:33N 29°51' E 122°54'2710.9
2014-Sep-15 10:04N 30°18' E 122°58'911.8
2014-Sep-15 09:21N 30°23' E 122°51'1011.6
2014-Sep-15 08:30N 30°29' E 122°42'1111.6
2014-Sep-15 07:33N 30°32' E 122°30'1010.2
2014-Sep-15 06:33N 30°33' E 122°18'12 0.7
2014-Sep-14 13:28N 30°36' E 122°05'9 9.3
2014-Sep-14 12:32N 30°34' E 122°15'9 8.9
2014-Sep-14 11:33N 30°32' E 122°25'7 7.2
2014-Sep-14 10:33N 30°31' E 122°33'1111.2
2014-Sep-14 09:34N 30°27' E 122°45'1312.8
2014-Sep-14 08:33N 30°20' E 122°57'1914.4
2014-Sep-14 07:13N 30°05' E 123°11'24420.0
2014-Sep-13 19:00N 26°24' E 121°12'10321.9 160 / 201006.0 5.4 1.528.025.233.0
2014-Sep-13 14:16N 25°03' E 120°01'2024.8
2014-Sep-13 13:28N 24°51' E 119°43'2325.2
2014-Sep-13 12:33N 24°38' E 119°22'2424.2
2014-Sep-13 11:33N 24°22' E 119°02'2423.9
2014-Sep-13 10:33N 24°09' E 118°40'2322.6
2014-Sep-13 09:33N 23°54' E 118°21'2222.4
2014-Sep-13 08:33N 23°42' E 118°01'2322.5
2014-Sep-13 07:32N 23°25' E 117°43'19518.7
2014-Sep-12 21:05N 22°07' E 114°29'24 9.6
2014-Sep-12 18:33N 22°18' E 114°06'2 0.2
2014-Sep-12 04:17N 22°20' E 114°07'4 4.6
2014-Sep-12 03:26N 22°16' E 114°07'8 9.2
2014-Sep-12 02:33N 22°10' E 114°12'53520.2
2014-Sep-11 00:00N 13°30' E 112°00'45719.1 250 / 141007.010.8 25.233.0
2014-Sep-10 00:00N 06°42' E 108°30'41718.3 230 / 18 10.8 1.029.024.833.0
2014-Sep-09 01:12N 01°16' E 104°10'1015.8
2014-Sep-09 00:34N 01°14' E 103°60'1111.5
2014-Sep-08 23:33N 01°13' E 103°48'5 4.7
2014-Sep-08 22:32N 01°17' E 103°46'0 0.0
2014-Sep-08 21:32N 01°17' E 103°46'0 0.0
2014-Sep-08 20:32N 01°17' E 103°46'0 0.1
2014-Sep-08 19:32N 01°17' E 103°46'0 0.1
2014-Sep-08 18:29N 01°17' E 103°46'0 0.0
2014-Sep-08 17:20N 01°17' E 103°46'0 0.0
2014-Sep-08 16:14N 01°17' E 103°46'0 0.0
2014-Sep-08 11:23N 01°17' E 103°46'0 0.0
2014-Sep-08 10:20N 01°17' E 103°46'0 0.0
2014-Sep-08 08:23N 01°17' E 103°46'0 0.0
2014-Sep-08 07:32N 01°17' E 103°46'0 0.0
2014-Sep-08 06:32N 01°17' E 103°46'0 0.0
2014-Sep-08 05:32N 01°17' E 103°46'0 0.0
2014-Sep-08 04:32N 01°17' E 103°46'0 0.0
2014-Sep-08 03:32N 01°17' E 103°46'0 0.0
2014-Sep-08 02:20N 01°17' E 103°46'0 0.0
2014-Sep-08 01:26N 01°17' E 103°46'0 0.0
2014-Sep-08 00:32N 01°17' E 103°46'0 0.0
2014-Sep-07 23:32N 01°17' E 103°46'0 0.0
2014-Sep-07 22:26N 01°17' E 103°46'0 0.0
2014-Sep-07 21:23N 01°17' E 103°46'0 0.0
2014-Sep-07 20:26N 01°17' E 103°46'0 0.0
2014-Sep-07 19:33N 01°17' E 103°46'1 0.5
2014-Sep-07 18:33N 01°17' E 103°46'3 3.0
2014-Sep-07 17:33N 01°14' E 103°47'7 6.0
2014-Sep-07 16:27N 01°15' E 103°54'0 0.0
2014-Sep-07 15:30N 01°15' E 103°54'0 0.2
2014-Sep-07 14:33N 01°14' E 103°53'0 0.0
2014-Sep-07 13:33N 01°14' E 103°53'0 0.0
2014-Sep-07 12:33N 01°14' E 103°53'0 0.0
2014-Sep-07 11:30N 01°14' E 103°53'0 0.0
2014-Sep-07 10:27N 01°14' E 103°53'0 0.1
2014-Sep-07 09:33N 01°14' E 103°53'0 0.1
2014-Sep-07 08:33N 01°14' E 103°53'0 0.1
2014-Sep-07 07:33N 01°15' E 103°53'0 0.1
2014-Sep-07 06:33N 01°14' E 103°53'0 0.0
2014-Sep-07 05:33N 01°14' E 103°53'0 0.0
2014-Sep-07 04:33N 01°14' E 103°53'0 0.1
2014-Sep-07 03:33N 01°15' E 103°53'0 0.1
2014-Sep-07 02:33N 01°15' E 103°53'  

Dump ship's entire track history